Time;durP1;ratioP1;P1;durP2;ratioP2;P2;SDS_P1;SDS_P2;PMS_P1;PMS_P2;Temp;Humidity;BMP_temperature;BMP_pressure;BME280_temperature;BME280_humidity;BME280_pressure;Samples;Min_cycle;Max_cycle;Signal;HPM_P1;HPM_P2
2022/01/26 00:00:18;;;;;;;81.43;31.43;;;;;;;-8.06;62.35;95965.50;5012720;28;20044;-81
2022/01/26 00:08:11;;;;;;;119.53;40.30;;;;;;;-7.41;61.15;96059.09;5014527;28;20134;-80
2022/01/26 00:10:49;;;;;;;175.30;56.35;;;;;;;-7.87;61.70;95980.09;1686318;28;10022776;-80
2022/01/26 00:13:15;;;;;;;159.80;53.10;;;;;;;-8.66;62.07;95828.69;3976095;28;10001107;-81
2022/01/26 00:15:40;;;;;;;164.00;53.57;;;;;;;-8.57;61.30;95882.81;5013728;28;20034;-81
2022/01/26 00:18:05;;;;;;;158.73;56.97;;;;;;;-8.10;62.18;96002.78;5015292;28;20131;-81
2022/01/26 00:20:56;;;;;;;159.97;52.40;;;;;;;-7.67;61.82;96058.91;5018698;28;20037;-81
2022/01/26 00:25:58;;;;;;;165.03;54.93;;;;;;;-8.00;62.78;95982.94;5019028;28;20088;-81
2022/01/26 00:38:33;;;;;;;148.43;51.40;;;;;;;-7.94;63.82;96048.53;5019548;28;20048;-82
2022/01/26 00:40:00;;;;;;;127.50;44.40;;;;;;;-8.38;63.23;96053.34;5018446;28;20072;-81
2022/01/26 00:42:31;;;;;;;126.47;42.87;;;;;;;-8.97;63.56;95951.44;5034059;28;20485;-81
2022/01/26 00:44:57;;;;;;;128.23;42.20;;;;;;;-8.96;64.36;96024.22;5018064;28;20452;-81
2022/01/26 00:47:22;;;;;;;128.13;41.47;;;;;;;-8.86;64.44;96024.25;5017221;28;20040;-81
2022/01/26 00:49:49;;;;;;;124.33;41.67;;;;;;;-10.05;65.45;95857.34;5017163;28;20034;-82
2022/01/26 00:52:25;;;;;;;107.23;39.10;;;;;;;-8.88;64.62;96037.22;5018640;28;20046;-81
2022/01/26 00:54:50;;;;;;;121.37;37.97;;;;;;;-9.17;64.96;95990.94;5017666;28;20104;-82
2022/01/26 00:57:16;;;;;;;113.20;37.40;;;;;;;-9.27;65.21;95955.88;5016886;28;20461;-81
2022/01/26 00:59:41;;;;;;;111.83;37.57;;;;;;;-8.87;65.02;96013.16;5033786;28;20553;-82
2022/01/26 01:02:07;;;;;;;104.03;36.83;;;;;;;-8.37;64.64;96049.81;5017220;28;20121;-82
2022/01/26 01:04:32;;;;;;;93.93;33.77;;;;;;;-8.35;65.14;96058.22;5017114;28;20033;-82
2022/01/26 01:07:01;;;;;;;90.43;32.37;;;;;;;-8.73;65.19;96001.66;5016904;28;20068;-82
2022/01/26 01:09:32;;;;;;;92.93;30.33;;;;;;;-8.25;64.70;96053.06;5033879;28;20461;-81
2022/01/26 01:11:58;;;;;;;76.50;28.33;;;;;;;-8.42;65.01;96021.13;5017975;28;20030;-82
2022/01/26 01:14:24;;;;;;;76.73;27.30;;;;;;;-8.78;64.51;95960.94;5016936;28;20053;-82
2022/01/26 01:16:52;;;;;;;78.63;29.53;;;;;;;-8.87;64.40;95964.31;5015836;28;20133;-81
2022/01/26 01:19:42;;;;;;;87.73;30.07;;;;;;;-8.87;65.63;95984.06;5016665;28;20045;-82
2022/01/26 01:25:26;;;;;;;74.53;27.43;;;;;;;-8.95;65.21;95927.38;5018246;28;20455;-83
2022/01/26 01:30:39;;;;;;;;;;;;;;;-8.14;64.92;96036.63;4994111;28;20057;-82
2022/01/26 01:33:10;;;;;;;75.97;25.90;;;;;;;-8.55;65.15;95982.03;5018417;28;19922;-82
2022/01/26 01:35:40;;;;;;;71.40;25.75;;;;;;;-9.15;65.81;95865.69;5016475;28;20030;-82
2022/01/26 01:38:13;;;;;;;67.73;25.80;;;;;;;-8.91;64.99;95885.00;5032443;28;20041;-82
2022/01/26 01:40:42;;;;;;;66.60;25.60;;;;;;;-8.74;64.71;95954.56;5016565;28;20034;-81
2022/01/26 01:43:09;;;;;;;64.80;25.07;;;;;;;-8.59;64.92;95945.47;5016540;28;20065;-82
2022/01/26 01:45:37;;;;;;;70.03;25.00;;;;;;;-8.36;64.48;95973.47;5017341;28;20033;-81
2022/01/26 01:48:04;;;;;;;63.43;23.93;;;;;;;-8.32;65.04;95943.94;5016574;28;20061;-81
2022/01/26 01:50:30;;;;;;;66.43;23.27;;;;;;;-8.74;64.52;95905.69;5032696;28;20136;-81
2022/01/26 01:53:00;;;;;;;64.63;24.90;;;;;;;-8.67;64.36;95883.63;5016058;28;20092;-81
2022/01/26 01:55:28;;;;;;;64.88;25.05;;;;;;;-7.83;63.72;96010.56;5017531;28;20120;-81
2022/01/26 01:57:55;;;;;;;58.57;24.87;;;;;;;-7.86;64.10;95997.16;5016470;28;20046;-82
2022/01/26 02:00:21;;;;;;;59.27;22.53;;;;;;;-8.37;65.15;95992.41;5016111;28;20038;-82
2022/01/26 02:02:46;;;;;;;67.47;25.23;;;;;;;-8.34;65.68;95956.94;5016420;28;20095;-82
2022/01/26 02:05:12;;;;;;;76.40;27.00;;;;;;;-8.25;64.94;95988.72;5017163;28;20096;-81
2022/01/26 02:07:37;;;;;;;67.80;23.27;;;;;;;-8.46;64.55;95942.59;5015855;28;20584;-82
2022/01/26 02:10:18;;;;;;;60.50;23.85;;;;;;;-8.24;65.83;95998.84;2827201;28;10002326;-82
2022/01/26 02:12:48;;;;;;;63.90;25.37;;;;;;;-8.31;66.07;95974.66;2940009;28;10001644;-81
2022/01/26 02:15:48;;;;;;;62.32;23.28;;;;;;;-8.64;65.50;95905.69;2325075;28;10023820;-82
2022/01/26 02:18:31;;;;;;;78.00;26.17;;;;;;;-9.24;65.72;95811.75;3631947;28;10001192;-82
2022/01/26 02:21:13;;;;;;;75.10;27.03;;;;;;;-9.29;66.78;95827.56;5016206;28;20052;-81
2022/01/26 03:01:58;;;;;;;87.87;26.70;;;;;;;-7.86;65.54;95912.19;5013708;28;20041;-81
2022/01/26 03:09:39;;;;;;;64.03;24.83;;;;;;;-7.78;64.93;95963.78;5012889;28;20068;-81
2022/01/26 03:12:06;;;;;;;80.47;26.07;;;;;;;-7.98;64.14;95905.59;5011239;28;20132;-80
2022/01/26 03:17:58;;;;;;;73.73;26.47;;;;;;;-8.79;65.23;95773.38;5013227;28;20037;-81
2022/01/26 03:19:53;;;;;;;74.33;27.37;;;;;;;-8.20;65.50;95897.28;5002107;28;20064;-81
2022/01/26 03:35:51;;;;;;;66.93;26.33;;;;;;;-8.02;64.94;95891.41;5012933;28;20050;-81
2022/01/26 03:38:25;;;;;;;76.77;26.03;;;;;;;-8.02;65.38;95909.41;5012289;28;20524;-81
2022/01/26 03:41:01;;;;;;;83.40;27.73;;;;;;;-7.78;64.77;95967.16;5011012;28;20040;-81
2022/01/26 03:43:27;;;;;;;67.27;27.23;;;;;;;-7.60;65.87;95969.00;5011279;28;20117;-82
2022/01/26 03:45:52;;;;;;;76.13;28.50;;;;;;;-7.60;64.87;95953.53;5011011;28;20044;-81
2022/01/26 03:48:18;;;;;;;80.13;28.33;;;;;;;-8.60;65.78;95812.69;5012463;28;20065;-81
2022/01/26 03:50:43;;;;;;;77.33;26.23;;;;;;;-8.37;65.44;95833.72;5010325;28;20065;-81
2022/01/26 03:53:09;;;;;;;74.10;27.67;;;;;;;-7.75;65.52;95950.63;5011785;28;20469;-81
2022/01/26 03:55:34;;;;;;;79.73;28.47;;;;;;;-7.93;66.89;95893.91;5012334;28;20038;-81
2022/01/26 03:58:00;;;;;;;72.83;27.27;;;;;;;-7.78;65.40;95908.91;5012300;28;20105;-81
2022/01/26 04:00:25;;;;;;;73.03;28.47;;;;;;;-8.09;66.54;95873.13;5010455;28;20037;-81
2022/01/26 04:02:51;;;;;;;72.97;27.33;;;;;;;-7.81;67.05;95879.91;5010884;28;20034;-81
2022/01/26 04:05:16;;;;;;;74.53;28.13;;;;;;;-7.78;66.11;95857.41;5012186;28;20064;-81
2022/01/26 04:07:43;;;;;;;66.57;27.67;;;;;;;-8.05;64.74;95817.03;5012421;28;20033;-81
2022/01/26 04:10:36;;;;;;;80.83;28.60;;;;;;;-7.90;66.15;95831.03;5011837;28;20038;-81
2022/01/26 04:13:01;;;;;;;77.23;27.63;;;;;;;-8.19;65.70;95775.38;5012429;28;20038;-81
2022/01/26 04:15:38;;;;;;;71.35;27.25;;;;;;;-7.29;65.70;95923.13;1633366;28;10022847;-81
2022/01/26 04:18:06;;;;;;;78.93;26.67;;;;;;;-7.36;66.40;95945.28;3973871;28;10001143;-81
2022/01/26 04:20:37;;;;;;;77.90;28.77;;;;;;;-7.59;66.89;95880.47;5026567;28;20030;-81
2022/01/26 04:23:18;;;;;;;87.70;29.35;;;;;;;-7.35;66.42;95895.34;5010182;28;20564;-81
2022/01/26 04:25:46;;;;;;;93.45;32.92;;;;;;;-7.21;66.01;95929.16;5011676;28;20448;-82
2022/01/26 04:28:17;;;;;;;76.97;29.83;;;;;;;-7.09;65.89;95934.91;5010225;28;20057;-81
2022/01/26 04:30:43;;;;;;;83.73;31.47;;;;;;;-7.82;66.20;95806.19;5011898;28;20543;-81
2022/01/26 04:33:09;;;;;;;91.33;33.13;;;;;;;-7.80;67.13;95837.75;5010370;28;20037;-81
2022/01/26 04:35:35;;;;;;;95.60;33.80;;;;;;;-7.23;67.09;95912.22;5011060;28;20040;-81
2022/01/26 04:40:42;;;;;;;71.77;26.40;;;;;;;-7.12;66.21;95938.63;5012078;28;20048;-81
2022/01/26 04:43:16;;;;;;;66.17;24.00;;;;;;;-7.55;65.54;95859.41;5010065;28;20571;-81
2022/01/26 04:45:42;;;;;;;73.33;26.90;;;;;;;-6.88;65.31;95943.19;5010233;28;20084;-81
2022/01/26 04:48:07;;;;;;;83.03;29.50;;;;;;;-7.28;67.52;95889.47;5010247;28;20038;-81
2022/01/26 04:50:33;;;;;;;75.27;28.13;;;;;;;-6.93;65.82;95923.94;5010193;28;20061;-81
2022/01/26 04:52:58;;;;;;;86.27;30.93;;;;;;;-7.27;66.58;95896.25;5011694;28;20062;-81
2022/01/26 04:55:24;;;;;;;75.23;29.50;;;;;;;-7.74;66.73;95814.94;5010077;28;20473;-81
2022/01/26 04:57:49;;;;;;;85.83;32.00;;;;;;;-7.23;66.68;95883.88;5011973;28;20042;-81
2022/01/26 05:00:15;;;;;;;88.13;31.77;;;;;;;-6.99;66.98;95934.84;5012218;28;20041;-81
2022/01/26 05:02:40;;;;;;;87.33;31.53;;;;;;;-7.55;67.38;95863.78;5010126;28;20042;-81
2022/01/26 05:05:10;;;;;;;76.13;28.43;;;;;;;-7.12;66.61;95906.88;5012613;28;20488;-81
2022/01/26 05:07:35;;;;;;;86.67;31.20;;;;;;;-6.89;66.50;95933.00;5029786;28;20037;-81
2022/01/26 05:10:03;;;;;;;83.67;31.83;;;;;;;-7.36;66.64;95861.06;5013426;28;20057;-81
2022/01/26 05:12:28;;;;;;;86.97;32.23;;;;;;;-6.83;67.80;95935.81;5013796;28;20050;-81
2022/01/26 05:14:54;;;;;;;91.57;30.80;;;;;;;-6.70;67.41;95933.66;5013443;28;20044;-81
2022/01/26 05:17:21;;;;;;;84.10;31.77;;;;;;;-7.20;66.15;95856.03;5015527;28;20061;-81
2022/01/26 05:19:47;;;;;;;68.40;26.77;;;;;;;-6.63;65.91;95936.44;5013038;28;20124;-81
2022/01/26 05:22:12;;;;;;;69.40;26.50;;;;;;;-6.70;65.90;95923.34;5013000;28;20038;-81
2022/01/26 05:24:38;;;;;;;77.60;28.97;;;;;;;-7.01;65.81;95871.34;5013077;28;20045;-81
2022/01/26 05:27:04;;;;;;;72.83;28.03;;;;;;;-7.56;64.85;95796.00;5013240;28;20053;-80
2022/01/26 05:29:29;;;;;;;71.97;25.90;;;;;;;-7.35;65.58;95807.75;5013518;28;20092;-81
2022/01/26 05:31:55;;;;;;;65.83;26.43;;;;;;;-6.91;65.70;95873.84;5014546;28;20049;-81
2022/01/26 05:34:20;;;;;;;60.77;20.23;;;;;;;-6.38;62.95;95935.69;5013137;28;20034;-81
2022/01/26 05:36:46;;;;;;;43.15;16.33;;;;;;;-6.54;63.54;95885.72;5014192;28;20477;-81
2022/01/26 05:39:11;;;;;;;42.60;17.67;;;;;;;-6.36;63.20;95899.41;5012687;28;20042;-82
2022/01/26 05:41:38;;;;;;;35.10;15.57;;;;;;;-6.63;62.20;95846.97;5012620;28;20095;-81
2022/01/26 05:44:05;;;;;;;43.50;16.47;;;;;;;-6.35;63.05;95885.53;5013877;28;20038;-81
2022/01/26 05:46:44;;;;;;;40.93;16.20;;;;;;;-6.58;61.38;95823.31;5012789;28;20168;-81
2022/01/26 05:49:10;;;;;;;35.40;14.53;;;;;;;-6.14;61.32;95890.31;5014236;28;20417;-81
2022/01/26 05:51:36;;;;;;;40.60;15.57;;;;;;;-5.87;62.88;95924.47;5014181;28;20077;-81
2022/01/26 05:54:03;;;;;;;33.60;15.57;;;;;;;-6.56;62.23;95808.47;5029075;28;20030;-81
2022/01/26 05:56:29;;;;;;;39.25;15.63;;;;;;;-6.58;62.54;95807.81;5012112;28;20547;-81
2022/01/26 05:58:54;;;;;;;38.23;15.67;;;;;;;-6.70;63.44;95790.97;5012702;28;20564;-81
2022/01/26 06:01:21;;;;;;;80.17;32.73;;;;;;;-6.39;63.90;95840.31;5014209;28;20061;-81
2022/01/26 06:03:47;;;;;;;99.00;35.10;;;;;;;-6.04;64.86;95922.84;5012986;28;20033;-81
2022/01/26 06:06:13;;;;;;;107.00;40.60;;;;;;;-6.94;64.77;95801.16;5014479;28;20038;-81
2022/01/26 06:08:38;;;;;;;118.13;41.17;;;;;;;-6.81;65.66;95841.06;5014679;28;20046;-80
2022/01/26 06:11:04;;;;;;;98.57;38.37;;;;;;;-6.44;65.85;95876.94;5013132;28;20062;-81
2022/01/26 06:13:30;;;;;;;79.88;34.17;;;;;;;-6.55;65.08;95856.53;5014779;28;20033;-82
2022/01/26 06:15:56;;;;;;;52.72;20.27;;;;;;;-5.95;64.51;95929.63;5011917;28;20062;-81
2022/01/26 06:18:21;;;;;;;40.07;16.10;;;;;;;-6.53;64.88;95825.41;5012721;28;20536;-81
2022/01/26 06:20:48;;;;;;;36.57;16.70;;;;;;;-6.27;65.26;95847.69;5013933;28;20108;-82
2022/01/26 06:23:14;;;;;;;44.85;16.77;;;;;;;-6.66;64.51;95757.00;5015506;28;20092;-81
2022/01/26 06:25:44;;;;;;;45.58;17.70;;;;;;;-6.27;65.82;95821.88;4595961;28;10001454;-82
2022/01/26 06:28:13;;;;;;;49.15;16.83;;;;;;;-6.20;64.86;95845.28;689511;28;10002007;-81
2022/01/26 06:30:44;;;;;;;36.47;15.00;;;;;;;-9.41;63.40;95287.63;5013868;28;20045;-82
2022/01/26 06:33:10;;;;;;;;;;;;;;;-5.45;65.46;95919.34;5015665;28;20164;-82
2022/01/26 06:35:38;;;;;;;42.27;15.30;;;;;;;-7.36;64.46;95665.22;5013535;28;19913;-81
2022/01/26 06:38:03;;;;;;;52.83;17.65;;;;;;;-7.82;64.82;95542.75;5014122;28;20052;-81
2022/01/26 06:40:29;;;;;;;47.45;17.92;;;;;;;-7.02;65.24;95667.84;5014210;28;20098;-81
2022/01/26 06:42:59;;;;;;;51.93;18.23;;;;;;;-5.37;65.13;95915.16;5015289;28;20053;-81
2022/01/26 06:45:28;;;;;;;45.83;19.23;;;;;;;-6.41;64.92;95765.66;5015042;28;20034;-81
2022/01/26 06:48:11;;;;;;;40.00;18.27;;;;;;;-6.19;65.83;95805.59;5017092;28;20029;-81
2022/01/26 06:50:37;;;;;;;41.00;17.77;;;;;;;-7.69;66.37;95537.19;5013064;28;20100;-81
2022/01/26 06:53:03;;;;;;;45.40;18.25;;;;;;;-8.95;66.61;95339.66;5030248;28;20046;-82
2022/01/26 06:55:28;;;;;;;47.55;18.55;;;;;;;-7.29;65.79;95611.31;5013203;28;20037;-81
2022/01/26 06:57:54;;;;;;;47.65;18.52;;;;;;;-7.65;66.46;95562.50;5013116;28;20107;-81
2022/01/26 07:00:20;;;;;;;40.38;16.73;;;;;;;-6.48;65.54;95725.16;5013971;28;20057;-80
2022/01/26 07:02:45;;;;;;;46.55;18.15;;;;;;;-5.14;67.22;95935.09;5012226;28;20042;-81
2022/01/26 07:05:12;;;;;;;49.58;20.67;;;;;;;-5.24;66.97;95916.31;5013315;28;20076;-81
2022/01/26 07:07:38;;;;;;;47.17;17.85;;;;;;;-8.78;66.37;95369.66;5012313;28;20121;-81
2022/01/26 07:10:05;;;;;;;46.88;19.08;;;;;;;-6.48;66.23;95728.50;5014022;28;20042;-81
2022/01/26 07:12:30;;;;;;;54.78;19.55;;;;;;;-8.18;66.89;95455.34;5015748;28;20032;-82
2022/01/26 07:22:55;;;;;;;;;;;;;;;-4.83;67.75;95929.34;5015214;28;20093;-81
2022/01/26 07:25:21;;;;;;;45.08;17.52;;;;;;;-8.73;67.79;95328.06;5014238;28;19957;-81
2022/01/26 07:27:46;;;;;;;46.10;18.52;;;;;;;-4.74;68.14;95928.38;5010792;28;20100;-81
2022/01/26 07:30:12;;;;;;;49.33;18.10;;;;;;;-7.11;68.16;95556.13;5028570;28;20072;-81
2022/01/26 07:32:38;;;;;;;50.88;19.13;;;;;;;-8.27;68.50;95402.22;5029628;28;20049;-81
2022/01/26 07:35:13;;;;;;;54.25;19.58;;;;;;;-8.23;68.54;95421.53;5013685;28;20112;-80
2022/01/26 07:37:39;;;;;;;46.78;17.00;;;;;;;-8.56;67.86;95390.66;5011768;28;20037;-82
2022/01/26 07:40:09;;;;;;;41.83;16.98;;;;;;;-8.80;68.41;95281.59;5013167;28;20045;-81
2022/01/26 07:42:38;;;;;;;50.40;19.45;;;;;;;-6.11;68.72;95715.25;5013242;28;20040;-81
2022/01/26 07:45:06;;;;;;;52.15;17.58;;;;;;;-8.68;68.52;95294.97;5012165;28;20065;-80
2022/01/26 07:47:33;;;;;;;47.15;17.92;;;;;;;-7.24;68.65;95547.22;5015040;28;20022;-80
2022/01/26 07:50:00;;;;;;;41.05;16.83;;;;;;;-4.69;68.82;95960.56;5011579;28;20045;-80
2022/01/26 07:52:33;;;;;;;42.45;16.95;;;;;;;-8.40;68.30;95355.56;5012670;28;20068;-81
2022/01/26 07:54:59;;;;;;;37.08;15.27;;;;;;;-5.11;69.41;95880.47;5011881;28;20037;-81
2022/01/26 07:57:26;;;;;;;52.28;18.08;;;;;;;-4.62;69.83;95928.84;5011872;28;20416;-80
2022/01/26 07:59:53;;;;;;;47.30;17.70;;;;;;;-5.72;70.05;95774.06;5013061;28;20034;-80
2022/01/26 08:02:20;;;;;;;52.47;19.15;;;;;;;-4.55;70.71;95933.22;5011994;28;20022;-81
2022/01/26 08:04:45;;;;;;;54.90;19.52;;;;;;;-5.23;71.14;95830.03;5013236;28;20084;-81
2022/01/26 08:07:11;;;;;;;52.88;19.88;;;;;;;-4.98;70.99;95859.31;5011556;28;20042;-81
2022/01/26 08:09:42;;;;;;;44.95;18.48;;;;;;;-5.30;71.54;95799.81;5011525;28;20461;-81
2022/01/26 08:12:08;;;;;;;54.97;18.45;;;;;;;-4.90;71.42;95887.78;5011168;28;20059;-81
2022/01/26 08:14:33;;;;;;;47.05;18.38;;;;;;;-4.80;70.97;95872.88;4965982;28;20644;-81
2022/01/26 08:17:09;;;;;;;36.45;16.65;;;;;;;-4.46;72.45;95952.16;633769;28;10023096;-81
2022/01/26 08:19:36;;;;;;;48.88;18.55;;;;;;;-6.03;71.73;95712.69;4993067;28;20243;-81
2022/01/26 08:22:02;;;;;;;45.95;18.08;;;;;;;-4.39;71.82;95995.38;4991218;28;20473;-81
2022/01/26 08:24:28;;;;;;;43.25;18.50;;;;;;;-4.81;71.50;95875.66;4991138;28;20042;-80
2022/01/26 08:26:57;;;;;;;51.22;19.38;;;;;;;-6.98;72.26;95539.41;4992120;28;20043;-81
2022/01/26 08:29:28;;;;;;;49.42;18.23;;;;;;;-5.63;72.05;95718.84;4992231;28;20034;-81
2022/01/26 08:31:54;;;;;;;43.50;18.25;;;;;;;-4.31;72.36;95986.78;4990848;28;20045;-81
2022/01/26 08:34:19;;;;;;;40.30;17.80;;;;;;;-7.89;72.41;95387.28;4991052;28;20031;-82
2022/01/26 08:36:45;;;;;;;43.33;18.00;;;;;;;-4.50;72.28;95935.34;4992949;28;20038;-81
2022/01/26 08:39:11;;;;;;;42.00;16.90;;;;;;;-5.52;72.49;95752.13;4992325;28;20181;-81
2022/01/26 08:41:36;;;;;;;39.85;17.85;;;;;;;-5.88;73.09;95671.56;4996242;28;20030;-81
2022/01/26 08:44:03;;;;;;;41.17;17.25;;;;;;;-4.43;73.05;95900.06;4997048;28;20108;-81
2022/01/26 08:46:29;;;;;;;47.83;17.80;;;;;;;-5.64;73.09;95735.31;4995386;28;20505;-81
2022/01/26 08:48:55;;;;;;;45.92;17.25;;;;;;;-4.46;73.29;95895.22;4994629;28;20033;-81
2022/01/26 08:51:20;;;;;;;37.03;16.83;;;;;;;-4.22;72.83;95944.38;4994680;28;20046;-80
2022/01/26 08:53:46;;;;;;;36.30;16.48;;;;;;;-4.89;72.31;95816.97;4994222;28;20063;-81
2022/01/26 08:56:12;;;;;;;39.75;16.75;;;;;;;-5.65;72.30;95697.53;4994319;28;20415;-80
2022/01/26 08:58:38;;;;;;;48.30;18.35;;;;;;;-3.99;72.43;95936.75;4993757;28;20121;-81
2022/01/26 09:01:03;;;;;;;39.83;17.45;;;;;;;-4.99;72.58;95793.03;4994249;28;20134;-81
2022/01/26 09:03:30;;;;;;;37.17;17.00;;;;;;;-3.97;72.58;95935.59;4993758;28;20589;-82
2022/01/26 09:05:56;;;;;;;39.85;15.50;;;;;;;-5.25;72.94;95715.59;4996313;28;20502;-80
2022/01/26 09:08:25;;;;;;;42.17;17.17;;;;;;;-7.28;72.41;95410.16;4995904;28;20027;-80
2022/01/26 09:10:56;;;;;;;34.80;16.35;;;;;;;-5.16;72.40;95753.44;4996199;28;20506;-80
2022/01/26 09:13:24;;;;;;;39.20;15.70;;;;;;;-5.20;73.16;95754.72;4996343;28;20042;-81
2022/01/26 09:15:49;;;;;;;37.78;16.27;;;;;;;-7.62;72.01;95405.06;4993855;28;20126;-80
2022/01/26 09:18:19;;;;;;;37.40;15.00;;;;;;;-7.68;72.81;95341.31;4993524;28;20036;-80
2022/01/26 09:20:45;;;;;;;36.17;15.85;;;;;;;-4.19;73.50;95900.00;5009675;28;20113;-81
2022/01/26 09:23:10;;;;;;;34.38;15.23;;;;;;;-7.54;72.08;95345.84;4994832;28;20512;-80
2022/01/26 09:25:36;;;;;;;36.78;15.65;;;;;;;-6.61;72.47;95488.22;5010068;28;20034;-80
2022/01/26 09:28:02;;;;;;;44.28;16.60;;;;;;;-3.97;73.36;95896.72;4993303;28;20073;-81
2022/01/26 09:30:40;;;;;;;36.47;16.42;;;;;;;-3.97;73.14;95904.50;4993353;28;20045;-81
2022/01/26 09:33:05;;;;;;;35.38;16.23;;;;;;;-4.27;72.05;95843.84;4995461;28;20034;-80
2022/01/26 09:35:31;;;;;;;41.50;17.05;;;;;;;-3.80;73.27;95904.44;4995545;28;20041;-80
2022/01/26 09:37:56;;;;;;;35.40;14.65;;;;;;;-4.17;73.40;95841.09;4996292;28;20117;-80
2022/01/26 09:40:23;;;;;;;38.88;15.80;;;;;;;-4.12;72.71;95854.34;4995970;28;20118;-79
2022/01/26 09:42:52;;;;;;;36.60;15.70;;;;;;;-4.47;73.16;95792.63;4996745;28;20041;-80
2022/01/26 09:45:18;;;;;;;33.05;15.52;;;;;;;-3.57;73.18;95936.47;4997864;28;20117;-80
2022/01/26 09:47:44;;;;;;;32.83;14.77;;;;;;;-5.58;73.27;95626.97;4993332;28;20094;-79
2022/01/26 09:50:10;;;;;;;37.08;15.75;;;;;;;-4.32;73.19;95816.84;4991478;28;20137;-80
2022/01/26 09:52:41;;;;;;;35.00;14.65;;;;;;;-6.39;73.08;95450.63;5009133;28;20236;-80
2022/01/26 09:55:10;;;;;;;39.20;16.40;;;;;;;-4.06;73.36;95830.38;4992440;28;20030;-81
2022/01/26 09:57:38;;;;;;;34.92;15.77;;;;;;;-3.97;73.50;95819.00;4995832;28;20069;-79
2022/01/26 10:00:05;;;;;;;36.15;17.58;;;;;;;-3.58;73.32;95870.81;4996698;28;20030;-79
2022/01/26 10:02:32;;;;;;;33.20;14.65;;;;;;;-4.04;72.87;95781.78;4994692;28;20037;-80
2022/01/26 10:05:06;;;;;;;34.75;14.25;;;;;;;-3.40;72.98;95886.16;4995702;28;20555;-80
2022/01/26 10:15:49;;;;;;;32.83;15.75;;;;;;;-3.37;73.21;95872.84;4994560;28;20430;-80
2022/01/26 10:18:33;;;;;;;29.22;13.37;;;;;;;-3.20;73.19;95909.88;3159651;28;10001792;-80
2022/01/26 10:21:01;;;;;;;35.42;14.80;;;;;;;-3.06;72.89;95903.97;2939090;28;10002333;-80
2022/01/26 10:23:37;;;;;;;34.33;14.60;;;;;;;-3.57;73.23;95814.59;5014812;28;20029;-80
2022/01/26 10:26:18;;;;;;;30.50;14.88;;;;;;;-2.96;73.29;95899.34;5014404;28;20040;-81
2022/01/26 10:28:52;;;;;;;44.73;16.67;;;;;;;-3.13;73.95;95843.38;5012975;28;20037;-81
2022/01/26 10:31:22;;;;;;;41.55;16.10;;;;;;;-2.93;72.96;95912.00;5012687;28;20034;-81
2022/01/26 10:33:59;;;;;;;30.70;14.13;;;;;;;-2.96;73.66;95888.16;5013753;28;20034;-80
2022/01/26 10:36:26;;;;;;;33.97;15.70;;;;;;;-3.51;73.79;95793.19;5012453;28;20038;-82
2022/01/26 10:39:07;;;;;;;30.70;15.02;;;;;;;-3.32;73.54;95823.84;5013486;28;20045;-81
2022/01/26 10:41:35;;;;;;;33.38;15.00;;;;;;;-2.85;73.83;95882.56;5011505;28;20033;-80
2022/01/26 10:44:02;;;;;;;34.13;15.48;;;;;;;-3.65;74.15;95750.63;5028309;28;20061;-80
2022/01/26 10:46:38;;;;;;;37.58;16.33;;;;;;;-3.35;74.51;95829.38;4995162;28;20030;-81
2022/01/26 10:49:31;;;;;;;39.45;15.93;;;;;;;-3.28;74.74;95829.53;5027396;28;20037;-80
2022/01/26 10:52:00;;;;;;;31.45;14.63;;;;;;;-3.36;75.25;95812.22;5012258;28;20050;-82
2022/01/26 10:54:38;;;;;;;34.03;16.08;;;;;;;-3.52;74.97;95787.19;5011554;28;20048;-80
2022/01/26 10:57:10;;;;;;;31.58;15.13;;;;;;;-3.29;74.73;95840.88;5011645;28;20042;-80
2022/01/26 10:59:45;;;;;;;35.28;16.08;;;;;;;-2.87;75.68;95895.72;5012217;28;20029;-80
2022/01/26 11:02:13;;;;;;;35.20;15.50;;;;;;;-3.15;75.78;95837.53;5011757;28;20042;-81
2022/01/26 11:04:41;;;;;;;36.65;16.42;;;;;;;-2.81;75.91;95881.22;5012203;28;20038;-82
2022/01/26 11:07:09;;;;;;;35.60;15.40;;;;;;;-2.85;75.67;95885.97;5027173;28;20029;-81
2022/01/26 11:09:38;;;;;;;40.10;17.48;;;;;;;-2.81;75.83;95883.81;5027762;28;20034;-82
2022/01/26 11:12:26;;;;;;;32.33;15.23;;;;;;;-2.80;75.08;95883.66;5013294;28;20030;-81
2022/01/26 11:14:58;;;;;;;36.03;15.88;;;;;;;-2.69;75.86;95873.84;5012788;28;20053;-81
2022/01/26 11:17:30;;;;;;;37.72;17.90;;;;;;;-2.79;75.81;95842.94;5013078;28;20536;-80
2022/01/26 11:19:57;;;;;;;33.47;15.77;;;;;;;-2.49;75.28;95888.78;5011394;28;20030;-80
2022/01/26 11:22:28;;;;;;;28.38;14.20;;;;;;;-2.84;74.97;95863.44;5011864;28;20033;-81
2022/01/26 11:25:06;;;;;;;33.65;13.98;;;;;;;-2.75;75.32;95914.31;5011126;28;20048;-80
2022/01/26 11:27:36;;;;;;;29.65;13.95;;;;;;;-2.93;75.82;95839.31;5012964;28;20523;-80
2022/01/26 11:30:15;;;;;;;29.10;14.27;;;;;;;-3.05;75.43;95813.97;5011136;28;20041;-80
2022/01/26 11:32:53;;;;;;;28.83;13.60;;;;;;;-2.62;75.18;95875.59;5012817;28;20052;-80
2022/01/26 11:35:20;;;;;;;31.75;12.18;;;;;;;-2.66;75.84;95878.69;5013781;28;20029;-80
2022/01/26 11:37:51;;;;;;;26.55;11.77;;;;;;;-2.98;75.26;95836.44;5028460;28;20095;-80
2022/01/26 11:46:11;;;;;;;23.17;11.98;;;;;;;-3.25;74.96;95767.72;5011663;28;20055;-80
2022/01/26 11:48:38;;;;;;;35.60;14.20;;;;;;;-2.68;76.02;95873.69;5011150;28;20091;-80
2022/01/26 11:51:05;;;;;;;27.02;13.32;;;;;;;-2.91;75.70;95836.56;5009563;28;20113;-80
2022/01/26 11:53:31;;;;;;;33.38;15.18;;;;;;;-2.81;76.08;95837.09;5007969;28;20552;-80
2022/01/26 11:56:09;;;;;;;31.15;13.77;;;;;;;-2.88;76.62;95834.41;5008787;28;20124;-79
2022/01/26 11:58:42;;;;;;;30.77;13.80;;;;;;;-2.76;76.42;95838.22;5008268;28;20042;-80
2022/01/26 12:01:31;;;;;;;26.20;13.43;;;;;;;-3.09;76.98;95786.72;5023549;28;20125;-79
2022/01/26 12:04:00;;;;;;;31.95;14.75;;;;;;;-3.39;76.92;95744.31;5006716;28;20025;-79
2022/01/26 12:06:31;;;;;;;27.60;13.80;;;;;;;-3.27;77.09;95780.03;5006935;28;20030;-80
2022/01/26 12:08:59;;;;;;;30.27;14.30;;;;;;;-3.03;77.22;95815.38;5008217;28;20030;-80
2022/01/26 12:11:52;;;;;;;34.13;14.55;;;;;;;-2.87;77.55;95832.63;5008317;28;20046;-79
2022/01/26 12:14:21;;;;;;;29.67;14.35;;;;;;;-3.28;77.53;95767.28;5009594;28;20049;-80
2022/01/26 12:16:50;;;;;;;35.47;15.63;;;;;;;-3.24;78.13;95774.53;5013017;28;20037;-80
2022/01/26 12:35:50;;;;;;;32.95;17.05;;;;;;;-2.54;77.55;95866.91;5015986;28;20583;-80
2022/01/26 12:38:20;;;;;;;34.90;16.10;;;;;;;-3.07;78.14;95779.59;5015558;28;20117;-81
2022/01/26 12:43:53;;;;;;;33.65;15.90;;;;;;;-2.53;78.21;95848.56;5015826;28;20129;-81
2022/01/26 12:46:22;;;;;;;32.28;16.02;;;;;;;-2.53;78.15;95847.75;5017498;28;20535;-81
2022/01/26 12:48:50;;;;;;;36.15;17.40;;;;;;;-2.52;78.01;95834.59;5016175;28;20057;-82
2022/01/26 12:51:17;;;;;;;32.47;15.35;;;;;;;-3.17;76.97;95770.25;5032377;28;20042;-82
2022/01/26 12:53:43;;;;;;;27.85;15.45;;;;;;;-2.67;77.86;95858.91;5014706;28;20053;-81
2022/01/26 12:56:15;;;;;;;26.92;13.77;;;;;;;-3.23;78.20;95752.78;5017135;28;20030;-80
2022/01/26 12:58:42;;;;;;;37.10;15.27;;;;;;;-3.77;78.02;95660.50;5015872;28;20382;-80
2022/01/26 13:01:19;;;;;;;37.83;16.55;;;;;;;-3.38;77.22;95731.19;5018380;28;20026;-81
2022/01/26 13:03:48;;;;;;;31.05;15.23;;;;;;;-2.76;78.24;95827.03;5029647;28;20041;-81
2022/01/26 13:06:27;;;;;;;41.90;15.38;;;;;;;-2.60;78.02;95836.47;5015116;28;20049;-80
2022/01/26 13:08:55;;;;;;;26.23;14.55;;;;;;;-2.63;77.22;95835.03;5015658;28;20202;-81
2022/01/26 13:11:33;;;;;;;33.15;15.90;;;;;;;-2.90;77.40;95774.06;5014585;28;20509;-81
2022/01/26 13:14:14;;;;;;;32.22;16.75;;;;;;;-2.48;77.25;95832.44;5013767;28;20030;-81
2022/01/26 13:16:45;;;;;;;26.48;13.82;;;;;;;-2.74;77.20;95773.13;5015568;28;20049;-81
2022/01/26 13:24:50;;;;;;;32.58;14.45;;;;;;;-2.73;76.89;95791.13;5016094;28;20102;-81
2022/01/26 13:30:01;;;;;;;31.30;14.40;;;;;;;-3.43;76.47;95673.06;5017466;28;20033;-81
2022/01/26 13:43:48;;;;;;;25.48;13.07;;;;;;;-2.51;77.56;95825.81;5015377;28;20033;-80
2022/01/26 13:54:14;;;;;;;28.70;13.98;;;;;;;-2.78;76.56;95740.72;5016772;28;20100;-80
2022/01/26 14:01:51;;;;;;;26.50;12.55;;;;;;;-2.96;77.73;95754.00;5015543;28;20101;-80
2022/01/26 14:04:18;;;;;;;30.65;13.25;;;;;;;-2.75;77.92;95798.25;5014990;28;20045;-81